Rick Husband Amarillo International Airport Amarillo US
ICAO: KAMA
IATA: AMA
Category: Large
Scheduled Services: Yes

Elevation: 3607 ft
TransAlt. 18000 ft.

Airport Communications:
APP/DEP:121.15
ATIS:118.85
CLNC DEL:121.65
CTAF:118.3
GND:121.9
FORT WORTH RDO:122.65
TWR:118.3
UNICOM:122.95

KAMA Zoom In..

If Map Doesn't Load, Click Here

Runways:

(A) RW 04 length 13502 ft width 200 ft
ILS 110.30 / hdg 38

(B) RW 13 length 7901 ft width 150 ft
---- / hdg 129

(C) RW 22 length 13502 ft width 200 ft
---- / hdg 218

(D) RW 31 length 7901 ft width 150 ft
---- / hdg 309

Location; KAMA
Day. 21 / Time. 15.20 Zulu
* Altimeter: 30.16
* Temperature: 19° c. 66.2°f.
* Wind from: 020° Speed 18 kn with Gusts up to 23 kn.
Dewpoint: 17° c.
Visibility: 10 Statute Miles.
Clouds: Broken 1000 ft.
Clouds: Broken 1600 ft.
Clouds: Broken 2500 ft.

KAMA 211520Z 02018G23KT 10SM BKN010 BKN016 BKN025 19/17 A3016 RMK AO2 T01890167


Wind From 020°
Speed 18 kn.

 
 
jpsmedia.com for Web Design worldairports.se 2018   terms of use